createdAt,value
2016-06-22T00:00:36.985Z,-68
2016-06-22T00:01:36.936Z,-70
2016-06-22T00:02:36.960Z,-70
2016-06-22T00:03:36.962Z,-68
2016-06-22T00:04:36.954Z,-70
2016-06-22T00:05:36.940Z,-68
2016-06-22T00:06:36.953Z,-68
2016-06-22T00:07:36.413Z,-68
2016-06-22T00:08:36.993Z,-68
2016-06-22T00:09:36.951Z,-68
2016-06-22T00:10:36.967Z,-70
2016-06-22T00:11:36.978Z,-68
2016-06-22T00:12:36.983Z,-70
2016-06-22T00:13:37.514Z,-68
2016-06-22T00:14:36.974Z,-68
2016-06-22T00:15:36.966Z,-68
2016-06-22T00:16:36.930Z,-68
2016-06-22T00:17:36.960Z,-68
2016-06-22T00:18:36.996Z,-68
2016-06-22T00:19:36.931Z,-68
2016-06-22T00:20:36.987Z,-68
2016-06-22T00:21:36.969Z,-70
2016-06-22T00:22:36.413Z,-68
2016-06-22T00:23:37.168Z,-68
2016-06-22T00:24:36.981Z,-70
2016-06-22T00:25:36.414Z,-68
2016-06-22T00:26:36.961Z,-68
2016-06-22T00:27:37.001Z,-68
2016-06-22T00:28:36.946Z,-68
2016-06-22T00:29:37.026Z,-68
2016-06-22T00:30:36.983Z,-68
2016-06-22T00:31:36.967Z,-70
2016-06-22T00:32:36.957Z,-68
2016-06-22T00:33:36.940Z,-68
2016-06-22T00:34:36.944Z,-68
2016-06-22T00:35:36.978Z,-68
2016-06-22T00:36:36.966Z,-68
2016-06-22T00:37:36.992Z,-68
2016-06-22T00:38:36.961Z,-68
2016-06-22T00:39:37.019Z,-69
2016-06-22T00:40:37.195Z,-69
2016-06-22T00:41:36.995Z,-69
2016-06-22T00:42:36.958Z,-69
2016-06-22T00:43:37.043Z,-69
2016-06-22T00:44:36.938Z,-69
2016-06-22T00:45:37.002Z,-68
2016-06-22T00:46:36.999Z,-69
2016-06-22T00:47:36.938Z,-69
2016-06-22T00:48:37.011Z,-69
2016-06-22T00:49:36.944Z,-69
2016-06-22T00:50:37.022Z,-69
2016-06-22T00:51:37.205Z,-69
2016-06-22T00:52:36.987Z,-69
2016-06-22T00:53:37.008Z,-69
2016-06-22T00:54:37.004Z,-69
2016-06-22T00:55:36.974Z,-68
2016-06-22T00:56:36.988Z,-69
2016-06-22T00:57:36.998Z,-69
2016-06-22T00:58:36.963Z,-69
2016-06-22T00:59:36.956Z,-69
2016-06-22T01:00:37.053Z,-69
2016-06-22T01:01:36.410Z,-69
2016-06-22T01:02:36.982Z,-69
2016-06-22T01:03:36.990Z,-69
2016-06-22T01:04:36.997Z,-69
2016-06-22T01:05:37.010Z,-69
2016-06-22T01:06:37.036Z,-69
2016-06-22T01:07:36.985Z,-68
2016-06-22T01:08:37.002Z,-69
2016-06-22T01:09:36.979Z,-68
2016-06-22T01:10:36.958Z,-68
2016-06-22T01:11:36.966Z,-69
2016-06-22T01:12:37.002Z,-68
2016-06-22T01:13:36.950Z,-68
2016-06-22T01:14:36.999Z,-69
2016-06-22T01:15:36.973Z,-69
2016-06-22T01:16:36.937Z,-69
2016-06-22T01:17:36.985Z,-68
2016-06-22T01:18:36.983Z,-69
2016-06-22T01:19:36.991Z,-68
2016-06-22T01:20:37.002Z,-68
2016-06-22T01:21:37.006Z,-69
2016-06-22T01:22:37.988Z,-69
2016-06-22T01:23:36.951Z,-68
2016-06-22T01:24:36.993Z,-68
2016-06-22T01:25:36.977Z,-68
2016-06-22T01:26:36.982Z,-69
2016-06-22T01:27:36.985Z,-69
2016-06-22T01:28:36.946Z,-69
2016-06-22T01:29:36.967Z,-69
2016-06-22T01:30:36.974Z,-68
2016-06-22T01:31:36.988Z,-69
2016-06-22T01:32:36.981Z,-69
2016-06-22T01:33:36.997Z,-69
2016-06-22T01:34:36.974Z,-69
2016-06-22T01:35:37.033Z,-69
2016-06-22T01:36:37.014Z,-68
2016-06-22T01:37:36.959Z,-68
2016-06-22T01:38:37.033Z,-68
2016-06-22T01:39:36.994Z,-71
2016-06-22T01:40:36.986Z,-71
2016-06-22T01:41:37.013Z,-71
2016-06-22T01:42:36.996Z,-71
2016-06-22T01:43:37.008Z,-71
2016-06-22T01:44:37.017Z,-71
2016-06-22T01:45:37.032Z,-71
2016-06-22T01:46:36.995Z,-71
2016-06-22T01:47:37.009Z,-71
2016-06-22T01:48:37.029Z,-71
2016-06-22T01:49:37.586Z,-71
2016-06-22T01:50:36.988Z,-71
2016-06-22T01:51:37.055Z,-71
2016-06-22T01:52:36.977Z,-71
2016-06-22T01:53:37.013Z,-71
2016-06-22T01:54:37.038Z,-71
2016-06-22T01:55:37.009Z,-71
2016-06-22T01:56:37.010Z,-71
2016-06-22T01:57:36.995Z,-71
2016-06-22T01:58:37.873Z,-71
2016-06-22T01:59:37.605Z,-71
2016-06-22T02:00:36.986Z,-71
2016-06-22T02:01:36.962Z,-71
2016-06-22T02:02:37.033Z,-71
2016-06-22T02:03:37.245Z,-69
2016-06-22T02:04:36.976Z,-69
2016-06-22T02:05:37.018Z,-68
2016-06-22T02:06:36.987Z,-69
2016-06-22T02:07:36.957Z,-69
2016-06-22T02:08:36.973Z,-69
2016-06-22T02:09:36.993Z,-69
2016-06-22T02:10:37.103Z,-71
2016-06-22T02:11:37.083Z,-68
2016-06-22T02:12:36.993Z,-69
2016-06-22T02:13:36.996Z,-69
2016-06-22T02:14:36.997Z,-68
2016-06-22T02:15:37.034Z,-68
2016-06-22T02:16:36.994Z,-68
2016-06-22T02:17:37.019Z,-69
2016-06-22T02:18:37.850Z,-68
2016-06-22T02:19:37.017Z,-68
2016-06-22T02:20:36.997Z,-69
2016-06-22T02:21:37.012Z,-68
2016-06-22T02:22:36.998Z,-68
2016-06-22T02:23:37.009Z,-69
2016-06-22T02:24:37.801Z,-69
2016-06-22T02:25:37.208Z,-71
2016-06-22T02:26:37.019Z,-70
2016-06-22T02:27:37.035Z,-68
2016-06-22T02:28:37.014Z,-68
2016-06-22T02:29:37.030Z,-68
2016-06-22T02:30:37.041Z,-70
2016-06-22T02:31:36.994Z,-70
2016-06-22T02:32:37.013Z,-70
2016-06-22T02:33:37.009Z,-70
2016-06-22T02:34:37.008Z,-70
2016-06-22T02:35:37.036Z,-70
2016-06-22T02:36:37.016Z,-70
2016-06-22T02:37:37.023Z,-70
2016-06-22T02:38:37.017Z,-70
2016-06-22T02:39:36.979Z,-70
2016-06-22T02:40:37.010Z,-70
2016-06-22T02:41:37.037Z,-70
2016-06-22T02:42:37.062Z,-70
2016-06-22T02:43:37.009Z,-70
2016-06-22T02:44:37.009Z,-70
2016-06-22T02:45:37.013Z,-70
2016-06-22T02:46:37.023Z,-70
2016-06-22T02:47:37.971Z,-70
2016-06-22T02:48:37.036Z,-70
2016-06-22T02:49:37.000Z,-70
2016-06-22T02:50:37.030Z,-70
2016-06-22T02:51:37.039Z,-70
2016-06-22T02:52:37.012Z,-70
2016-06-22T02:53:37.013Z,-68
2016-06-22T02:54:37.012Z,-68
2016-06-22T02:55:37.022Z,-68
2016-06-22T02:56:37.023Z,-68
2016-06-22T02:57:37.062Z,-68
2016-06-22T02:58:37.250Z,-68
2016-06-22T02:59:37.065Z,-70
2016-06-22T03:00:37.085Z,-70
2016-06-22T03:01:36.999Z,-70
2016-06-22T03:02:37.070Z,-70
2016-06-22T03:03:37.867Z,-70
2016-06-22T03:04:36.986Z,-70
2016-06-22T03:05:37.882Z,-70
2016-06-22T03:06:37.023Z,-70
2016-06-22T03:07:37.603Z,-70
2016-06-22T03:08:37.028Z,-70
2016-06-22T03:09:38.283Z,-70
2016-06-22T03:10:37.008Z,-70
2016-06-22T03:11:37.731Z,-70
2016-06-22T03:12:37.017Z,-70
2016-06-22T03:13:37.665Z,-70
2016-06-22T03:14:37.023Z,-70
2016-06-22T03:15:37.603Z,-70
2016-06-22T03:16:37.255Z,-70
2016-06-22T03:17:37.870Z,-70
2016-06-22T03:18:37.050Z,-70
2016-06-22T03:19:37.036Z,-70
2016-06-22T03:20:37.042Z,-70
2016-06-22T03:21:37.029Z,-70
2016-06-22T03:22:37.072Z,-70
2016-06-22T03:23:37.042Z,-70
2016-06-22T03:24:37.049Z,-70
2016-06-22T03:25:37.074Z,-70
2016-06-22T03:26:37.080Z,-70
2016-06-22T03:27:37.096Z,-70
2016-06-22T03:28:37.046Z,-70
2016-06-22T03:29:37.069Z,-70
2016-06-22T03:30:37.087Z,-70
2016-06-22T03:31:37.072Z,-70
2016-06-22T03:32:37.130Z,-70
2016-06-22T03:33:37.142Z,-70
2016-06-22T03:34:37.121Z,-70
2016-06-22T03:35:37.172Z,-70
2016-06-22T03:36:37.135Z,-70
2016-06-22T03:37:37.706Z,-70
2016-06-22T03:38:37.182Z,-70
2016-06-22T03:39:37.135Z,-70
2016-06-22T03:40:37.239Z,-70
2016-06-22T03:41:37.494Z,-70
2016-06-22T03:42:37.250Z,-70
2016-06-22T03:43:37.066Z,-70
2016-06-22T03:44:37.118Z,-70
2016-06-22T03:45:37.165Z,-70
2016-06-22T03:46:37.216Z,-70
2016-06-22T03:47:37.167Z,-70
2016-06-22T03:48:37.195Z,-70
2016-06-22T03:49:37.728Z,-70
2016-06-22T03:50:37.135Z,-70
2016-06-22T03:51:37.142Z,-70
2016-06-22T03:52:37.093Z,-70
2016-06-22T03:53:37.075Z,-70
2016-06-22T03:54:37.225Z,-70
2016-06-22T03:55:37.134Z,-70
2016-06-22T03:56:37.071Z,-70
2016-06-22T03:57:37.154Z,-70
2016-06-22T03:58:37.146Z,-70
2016-06-22T03:59:37.599Z,-70
2016-06-22T04:00:37.165Z,-70
2016-06-22T04:01:37.181Z,-70
2016-06-22T04:02:37.175Z,-70
2016-06-22T04:03:37.288Z,-70
2016-06-22T04:04:37.185Z,-70
2016-06-22T04:05:37.120Z,-70
2016-06-22T04:06:37.069Z,-70
2016-06-22T04:07:37.148Z,-70
2016-06-22T04:08:37.174Z,-70
2016-06-22T04:09:37.383Z,-70
2016-06-22T04:10:37.795Z,-70
2016-06-22T04:11:37.234Z,-70
2016-06-22T04:12:37.140Z,-70
2016-06-22T04:25:37.999Z,-71
2016-06-22T04:25:53.108Z,-71
2016-06-22T04:26:53.095Z,-71
2016-06-22T04:27:53.763Z,-71
2016-06-22T04:28:53.169Z,-71
2016-06-22T04:29:53.078Z,-71
2016-06-22T04:30:53.084Z,-72
2016-06-22T04:31:53.126Z,-71
2016-06-22T04:32:53.081Z,-71
2016-06-22T04:33:53.029Z,-71
2016-06-22T04:34:53.062Z,-71
2016-06-22T04:35:53.257Z,-71
2016-06-22T04:36:54.049Z,-71
2016-06-22T04:37:53.101Z,-71
2016-06-22T04:38:53.103Z,-71
2016-06-22T04:39:52.984Z,-71
2016-06-22T04:40:53.266Z,-71
2016-06-22T04:41:53.090Z,-72
2016-06-22T04:42:53.149Z,-71
2016-06-22T04:43:53.149Z,-71
2016-06-22T04:44:53.155Z,-71
2016-06-22T04:45:53.146Z,-71
2016-06-22T04:46:53.088Z,-71
2016-06-22T04:47:53.231Z,-71
2016-06-22T04:48:55.899Z,-73
2016-06-22T04:49:53.175Z,-71
2016-06-22T04:50:53.032Z,-71
2016-06-22T04:51:57.275Z,-71
2016-06-22T04:52:53.434Z,-71
2016-06-22T04:53:54.110Z,-71
2016-06-22T04:54:53.632Z,-71
2016-06-22T04:55:53.279Z,-71
2016-06-22T05:08:53.843Z,-73
2016-06-22T05:09:09.176Z,-73
2016-06-22T05:10:08.942Z,-72
2016-06-22T05:11:10.662Z,-72
2016-06-22T05:12:09.923Z,-69
2016-06-22T05:13:10.127Z,-71
2016-06-22T05:14:08.972Z,-70
2016-06-22T05:15:09.399Z,-73
2016-06-22T05:16:08.902Z,-73
2016-06-22T05:17:08.955Z,-73
2016-06-22T05:18:08.974Z,-73
2016-06-22T05:19:09.739Z,-73
2016-06-22T05:20:10.430Z,-71
2016-06-22T05:21:09.572Z,-71
2016-06-22T05:22:09.066Z,-71
2016-06-22T05:23:09.147Z,-71
2016-06-22T05:24:09.595Z,-71
2016-06-22T05:25:09.081Z,-71
2016-06-22T05:26:09.935Z,-71
2016-06-22T05:27:13.225Z,-73
2016-06-22T05:28:09.650Z,-73
2016-06-22T05:29:09.236Z,-70
2016-06-22T05:30:12.038Z,-70
2016-06-22T05:31:09.302Z,-71
2016-06-22T05:32:09.404Z,-73
2016-06-22T05:33:09.506Z,-73
2016-06-22T05:34:09.298Z,-72
2016-06-22T05:35:09.614Z,-72
2016-06-22T05:36:25.581Z,-72
2016-06-22T05:37:09.407Z,-72
2016-06-22T05:38:09.140Z,-72
2016-06-22T05:39:09.931Z,-72
2016-06-22T05:40:09.329Z,-72
2016-06-22T05:41:09.063Z,-72
2016-06-22T05:42:09.085Z,-69
2016-06-22T05:43:09.778Z,-71
2016-06-22T05:44:09.654Z,-71
2016-06-22T05:54:09.901Z,-69
2016-06-22T05:54:25.000Z,-69
2016-06-22T05:55:25.476Z,-69
2016-06-22T05:56:26.131Z,-72
2016-06-22T05:57:24.956Z,-69
2016-06-22T05:58:24.968Z,-71
2016-06-22T05:59:24.996Z,-71
2016-06-22T06:00:25.396Z,-71
2016-06-22T06:01:25.374Z,-69
2016-06-22T06:02:25.006Z,-71
2016-06-22T06:03:25.034Z,-71
2016-06-22T06:04:25.019Z,-71
2016-06-22T06:05:25.022Z,-68
2016-06-22T06:06:25.027Z,-70
2016-06-22T06:07:25.132Z,-70
2016-06-22T06:08:25.046Z,-70
2016-06-22T06:09:24.946Z,-70
2016-06-22T06:10:25.622Z,-70
2016-06-22T06:11:25.045Z,-70
2016-06-22T06:12:25.006Z,-70
2016-06-22T06:13:25.000Z,-69
2016-06-22T06:14:25.055Z,-69
2016-06-22T06:15:25.648Z,-69
2016-06-22T06:16:25.018Z,-69
2016-06-22T06:17:25.971Z,-69
2016-06-22T06:18:24.960Z,-69
2016-06-22T06:19:24.992Z,-69
2016-06-22T06:20:26.528Z,-69
2016-06-22T06:21:24.978Z,-69
2016-06-22T06:22:24.959Z,-69
2016-06-22T06:23:25.016Z,-69
2016-06-22T06:24:24.989Z,-69
2016-06-22T06:25:24.979Z,-69
2016-06-22T06:26:24.975Z,-69
2016-06-22T06:27:25.104Z,-69
2016-06-22T06:28:24.953Z,-69
2016-06-22T06:29:25.606Z,-68
2016-06-22T06:30:24.969Z,-68
2016-06-22T06:31:24.926Z,-68
2016-06-22T06:32:24.466Z,-70
2016-06-22T06:33:24.985Z,-70
2016-06-22T06:34:24.969Z,-68
2016-06-22T06:35:25.077Z,-70
2016-06-22T06:36:24.972Z,-70
2016-06-22T06:37:24.962Z,-68
2016-06-22T06:38:24.991Z,-70
2016-06-22T06:39:24.975Z,-68
2016-06-22T06:40:25.052Z,-68
2016-06-22T06:41:24.987Z,-68
2016-06-22T06:42:25.017Z,-70
2016-06-22T06:43:25.006Z,-70
2016-06-22T06:44:25.164Z,-68
2016-06-22T06:45:25.206Z,-68
2016-06-22T06:46:24.969Z,-68
2016-06-22T06:47:24.994Z,-68
2016-06-22T06:48:24.968Z,-68
2016-06-22T06:49:24.986Z,-68
2016-06-22T06:50:24.999Z,-68
2016-06-22T06:51:25.282Z,-67
2016-06-22T06:52:25.031Z,-68
2016-06-22T06:53:25.135Z,-70
2016-06-22T06:54:24.986Z,-70
2016-06-22T06:55:25.029Z,-70
2016-06-22T06:56:25.328Z,-70
2016-06-22T06:57:25.011Z,-70
2016-06-22T06:58:25.006Z,-70
2016-06-22T06:59:24.960Z,-70
2016-06-22T07:00:24.993Z,-67
2016-06-22T07:01:25.521Z,-70
2016-06-22T07:02:25.753Z,-70
2016-06-22T07:03:24.993Z,-69
2016-06-22T07:04:25.063Z,-70
2016-06-22T07:05:25.053Z,-69
2016-06-22T07:06:25.118Z,-69
2016-06-22T07:07:25.039Z,-69
2016-06-22T07:08:24.997Z,-69
2016-06-22T07:09:25.034Z,-69
2016-06-22T07:10:25.041Z,-69
2016-06-22T07:11:25.003Z,-69
2016-06-22T07:12:24.990Z,-69
2016-06-22T07:13:25.575Z,-69
2016-06-22T07:14:25.131Z,-69
2016-06-22T07:15:25.295Z,-72
2016-06-22T07:16:25.061Z,-69
2016-06-22T07:17:25.428Z,-71
2016-06-22T07:18:25.041Z,-71
2016-06-22T07:19:26.022Z,-69
2016-06-22T07:20:24.962Z,-69
2016-06-22T07:21:25.790Z,-68
2016-06-22T07:22:25.576Z,-70
2016-06-22T07:23:25.065Z,-70
2016-06-22T07:24:25.045Z,-68
2016-06-22T07:25:26.589Z,-70
2016-06-22T07:26:25.451Z,-68
2016-06-22T07:27:25.266Z,-68
2016-06-22T07:28:26.775Z,-68
2016-06-22T07:29:25.217Z,-68
2016-06-22T07:30:26.361Z,-70
2016-06-22T07:31:25.459Z,-70
2016-06-22T07:32:25.537Z,-69
2016-06-22T07:33:25.348Z,-70
2016-06-22T07:34:25.360Z,-70
2016-06-22T07:35:27.174Z,-71
2016-06-22T07:36:25.832Z,-70
2016-06-22T07:37:25.581Z,-70
2016-06-22T07:38:25.601Z,-70
2016-06-22T07:39:25.669Z,-69
2016-06-22T07:40:25.568Z,-70
2016-06-22T07:41:26.209Z,-70
2016-06-22T07:42:25.587Z,-68
2016-06-22T07:43:25.845Z,-71
2016-06-22T07:44:26.739Z,-69
2016-06-22T07:45:25.332Z,-69
2016-06-22T07:46:26.315Z,-71
2016-06-22T07:47:25.342Z,-70
2016-06-22T07:48:25.087Z,-70
2016-06-22T07:49:26.574Z,-70
2016-06-22T07:50:25.155Z,-70
2016-06-22T07:51:25.748Z,-70
2016-06-22T07:52:25.133Z,-70
2016-06-22T07:53:31.491Z,-69
2016-06-22T07:54:24.966Z,-69
2016-06-22T07:55:25.120Z,-69
2016-06-22T07:56:25.415Z,-69
2016-06-22T07:57:25.503Z,-69
2016-06-22T07:59:00.105Z,-69
2016-06-22T07:59:24.715Z,-69
2016-06-22T08:00:25.189Z,-69
2016-06-22T08:01:25.644Z,-69
2016-06-22T08:02:25.556Z,-69
2016-06-22T08:03:25.220Z,-72
2016-06-22T08:04:25.137Z,-71
2016-06-22T08:05:26.158Z,-72
2016-06-22T08:06:25.198Z,-69
2016-06-22T08:07:25.517Z,-69
2016-06-22T08:08:25.737Z,-69
2016-06-22T08:09:25.402Z,-69
2016-06-22T08:10:25.196Z,-70
2016-06-22T08:11:25.567Z,-69
2016-06-22T08:12:25.221Z,-71
2016-06-22T08:13:25.327Z,-71
2016-06-22T08:14:25.491Z,-71
2016-06-22T08:15:30.161Z,-70
2016-06-22T08:16:25.361Z,-71
2016-06-22T08:17:25.100Z,-70
2016-06-22T08:18:25.224Z,-71
2016-06-22T08:19:25.801Z,-70
2016-06-22T08:20:25.259Z,-71
2016-06-22T08:21:26.446Z,-71
2016-06-22T08:22:25.255Z,-71
2016-06-22T08:23:26.753Z,-71
2016-06-22T08:24:29.738Z,-71
2016-06-22T08:25:25.909Z,-71
2016-06-22T08:26:34.669Z,-74
2016-06-22T08:27:25.666Z,-69
2016-06-22T08:28:25.229Z,-69
2016-06-22T08:29:25.610Z,-69
2016-06-22T08:30:25.370Z,-71
2016-06-22T08:31:25.890Z,-70
2016-06-22T08:32:25.156Z,-70
2016-06-22T08:33:25.146Z,-70
2016-06-22T08:34:27.181Z,-71
2016-06-22T08:35:25.139Z,-71
2016-06-22T08:36:25.183Z,-71
2016-06-22T08:37:25.504Z,-69
2016-06-22T08:38:36.040Z,-70
2016-06-22T08:39:27.162Z,-72
2016-06-22T08:40:25.230Z,-69
2016-06-22T08:41:25.157Z,-70
2016-06-22T08:42:25.186Z,-72
2016-06-22T08:43:29.050Z,-72
2016-06-22T08:44:25.050Z,-70
2016-06-22T08:45:25.083Z,-69
2016-06-22T08:46:25.211Z,-70
2016-06-22T08:47:25.194Z,-72
2016-06-22T08:48:25.115Z,-71
2016-06-22T08:49:25.065Z,-69
2016-06-22T08:50:25.388Z,-71
2016-06-22T08:51:25.499Z,-71
2016-06-22T08:52:25.426Z,-71
2016-06-22T08:53:25.052Z,-71
2016-06-22T08:54:25.131Z,-71
2016-06-22T08:55:25.217Z,-71
2016-06-22T08:56:36.143Z,-71
2016-06-22T08:57:42.600Z,-71
2016-06-22T08:58:25.457Z,-71
2016-06-22T08:59:25.062Z,-71
2016-06-22T09:00:25.206Z,-73
2016-06-22T09:01:28.678Z,-71
2016-06-22T09:02:25.299Z,-71
2016-06-22T09:03:25.110Z,-71
2016-06-22T09:04:25.113Z,-71
2016-06-22T09:05:25.278Z,-71
2016-06-22T09:06:25.086Z,-71
2016-06-22T09:07:30.753Z,-71
2016-06-22T09:08:25.191Z,-71
2016-06-22T09:09:25.131Z,-71
2016-06-22T09:10:27.738Z,-73
2016-06-22T09:11:25.200Z,-70
2016-06-22T09:13:01.617Z,-70
2016-06-22T09:13:25.310Z,-70
2016-06-22T09:14:25.487Z,-70
2016-06-22T09:15:25.090Z,-70
2016-06-22T09:16:26.577Z,-71
2016-06-22T09:17:25.274Z,-72
2016-06-22T09:18:26.615Z,-70
2016-06-22T09:19:31.797Z,-70
2016-06-22T09:20:30.455Z,-70
2016-06-22T09:21:26.528Z,-72
2016-06-22T09:22:25.934Z,-72
2016-06-22T09:23:28.473Z,-72
2016-06-22T09:24:27.878Z,-72
2016-06-22T09:25:25.160Z,-70
2016-06-22T09:26:25.144Z,-69
2016-06-22T09:27:41.310Z,-71
2016-06-22T09:28:25.521Z,-71
2016-06-22T09:29:25.472Z,-70
2016-06-22T09:30:25.795Z,-70
2016-06-22T09:31:26.660Z,-70
2016-06-22T09:32:26.501Z,-70
2016-06-22T09:33:25.341Z,-70
2016-06-22T09:34:31.273Z,-70
2016-06-22T09:35:25.511Z,-70
2016-06-22T09:36:49.115Z,-69
2016-06-22T09:37:26.295Z,-69
2016-06-22T09:38:45.502Z,-70
2016-06-22T09:39:25.756Z,-71
2016-06-22T09:40:45.466Z,-71
2016-06-22T09:41:27.865Z,-71
2016-06-22T09:42:26.763Z,-69
2016-06-22T09:43:29.369Z,-71
2016-06-22T09:44:27.430Z,-70
2016-06-22T09:45:29.674Z,-71
2016-06-22T09:46:26.105Z,-71
2016-06-22T09:47:27.704Z,-71
2016-06-22T09:48:27.058Z,-73
2016-06-22T09:49:26.542Z,-71
2016-06-22T09:50:26.978Z,-74
2016-06-22T09:51:25.707Z,-70
2016-06-22T09:52:39.719Z,-72
2016-06-22T09:53:29.211Z,-72
2016-06-22T09:54:26.747Z,-72
2016-06-22T09:55:32.174Z,-71
2016-06-22T09:56:25.903Z,-71
2016-06-22T09:57:25.775Z,-71
2016-06-22T09:58:29.023Z,-71
2016-06-22T09:59:33.530Z,-71
2016-06-22T10:00:30.128Z,-72
2016-06-22T10:01:29.628Z,-72
2016-06-22T10:02:29.026Z,-74
2016-06-22T10:03:37.024Z,-72
2016-06-22T10:05:14.145Z,-72
2016-06-22T10:06:03.172Z,-72
2016-06-22T10:06:29.889Z,-72
2016-06-22T10:07:29.921Z,-74
2016-06-22T10:08:30.422Z,-72
2016-06-22T10:09:30.411Z,-71
2016-06-22T10:10:33.674Z,-71
2016-06-22T10:11:55.030Z,-71
2016-06-22T10:12:29.881Z,-68
2016-06-22T10:13:43.126Z,-71
2016-06-22T10:14:38.123Z,-71
2016-06-22T10:15:45.891Z,-71
2016-06-22T10:18:08.970Z,-73
2016-06-22T10:18:37.289Z,-73
2016-06-22T10:19:26.589Z,-73
2016-06-22T10:20:24.575Z,-76
2016-06-22T10:21:36.690Z,-73
2016-06-22T10:22:25.085Z,-73
2016-06-22T10:23:58.169Z,-73
2016-06-22T10:24:26.691Z,-71
2016-06-22T10:25:24.915Z,-71
2016-06-22T10:38:24.668Z,-71
2016-06-22T10:38:40.025Z,-71
2016-06-22T10:39:40.664Z,-71
2016-06-22T10:40:41.131Z,-71
2016-06-22T10:42:42.035Z,-71
2016-06-22T10:43:05.255Z,-72
2016-06-22T10:43:57.161Z,-69
2016-06-22T10:45:10.581Z,-71
2016-06-22T10:46:04.742Z,-73
2016-06-22T10:47:46.054Z,-71
2016-06-22T10:48:01.839Z,-72
2016-06-22T10:49:03.713Z,-72
2016-06-22T10:50:17.948Z,-72
2016-06-22T10:51:11.195Z,-71
2016-06-22T10:52:04.598Z,-70
2016-06-22T10:53:03.339Z,-71
2016-06-22T10:54:01.594Z,-70
2016-06-22T10:55:07.135Z,-72
2016-06-22T10:56:01.774Z,-71
2016-06-22T10:57:07.851Z,-73
2016-06-22T10:58:01.497Z,-71
2016-06-22T11:05:36.284Z,-70
2016-06-22T11:07:14.312Z,-72
2016-06-22T11:09:08.605Z,-71
2016-06-22T11:17:41.853Z,-71
2016-06-22T11:18:14.650Z,-73
2016-06-22T11:18:56.976Z,-71
2016-06-22T11:19:57.114Z,-71
2016-06-22T11:20:56.903Z,-71
2016-06-22T11:21:56.954Z,-71
2016-06-22T11:24:33.541Z,-70
2016-06-22T11:25:12.621Z,-72
2016-06-22T11:25:49.214Z,-71
2016-06-22T11:26:49.328Z,-71
2016-06-22T11:27:48.682Z,-71
2016-06-22T11:28:49.064Z,-71
2016-06-22T11:29:49.607Z,-70
2016-06-22T11:30:48.862Z,-70
2016-06-22T11:31:48.642Z,-70
2016-06-22T11:32:49.769Z,-70
2016-06-22T11:33:50.256Z,-70
2016-06-22T11:34:48.870Z,-70
2016-06-22T11:35:49.165Z,-72
2016-06-22T11:36:49.014Z,-70
2016-06-22T11:37:48.701Z,-72
2016-06-22T11:38:48.653Z,-70
2016-06-22T11:39:49.102Z,-70
2016-06-22T11:40:51.459Z,-72
2016-06-22T11:41:49.155Z,-72
2016-06-22T11:42:48.730Z,-72
2016-06-22T11:43:49.294Z,-70
2016-06-22T11:44:48.718Z,-72
2016-06-22T11:45:48.633Z,-72
2016-06-22T11:46:50.953Z,-74
2016-06-22T11:47:48.661Z,-70
2016-06-22T11:48:49.255Z,-70
2016-06-22T11:49:57.514Z,-73
2016-06-22T11:51:08.923Z,-71
2016-06-22T11:51:48.638Z,-71
2016-06-22T11:52:58.129Z,-70
2016-06-22T11:53:48.774Z,-71
2016-06-22T11:54:49.535Z,-70
2016-06-22T11:55:49.714Z,-70
2016-06-22T11:56:48.758Z,-70
2016-06-22T11:57:52.274Z,-70
2016-06-22T11:58:48.667Z,-70
2016-06-22T11:59:48.625Z,-70
2016-06-22T12:00:48.774Z,-70
2016-06-22T12:01:48.632Z,-70
2016-06-22T12:02:48.687Z,-70
2016-06-22T12:03:48.792Z,-70
2016-06-22T12:04:48.699Z,-70
2016-06-22T12:05:49.422Z,-70
2016-06-22T12:06:48.994Z,-73
2016-06-22T12:07:48.669Z,-70
2016-06-22T12:08:48.712Z,-70
2016-06-22T12:09:48.643Z,-70
2016-06-22T12:10:48.691Z,-70
2016-06-22T12:11:48.625Z,-70
2016-06-22T12:12:49.201Z,-70
2016-06-22T12:13:48.662Z,-70
2016-06-22T12:14:48.847Z,-70
2016-06-22T12:15:48.930Z,-71
2016-06-22T12:16:48.657Z,-70
2016-06-22T12:17:48.882Z,-70
2016-06-22T12:18:48.890Z,-70
2016-06-22T12:19:48.701Z,-70
2016-06-22T12:20:48.945Z,-70
2016-06-22T12:21:48.743Z,-70
2016-06-22T12:31:50.505Z,-70
2016-06-22T12:32:05.792Z,-70
2016-06-22T12:33:05.607Z,-70
2016-06-22T12:34:05.558Z,-70
2016-06-22T12:35:05.608Z,-71
2016-06-22T12:36:05.861Z,-71
2016-06-22T12:37:08.596Z,-71
2016-06-22T12:38:05.572Z,-71
2016-06-22T12:39:06.765Z,-70
2016-06-22T12:40:05.746Z,-70
2016-06-22T12:41:05.062Z,-71
2016-06-22T12:42:05.723Z,-71
2016-06-22T12:43:05.912Z,-71
2016-06-22T12:44:05.766Z,-71
2016-06-22T12:45:05.715Z,-71
2016-06-22T12:46:06.525Z,-71
2016-06-22T12:47:07.127Z,-71
2016-06-22T12:48:05.605Z,-71
2016-06-22T12:49:05.739Z,-70
2016-06-22T12:50:05.755Z,-71
2016-06-22T12:51:05.582Z,-71
2016-06-22T12:52:05.588Z,-70
2016-06-22T12:53:05.656Z,-70
2016-06-22T12:54:05.590Z,-70
2016-06-22T12:55:05.652Z,-70
2016-06-22T12:56:05.700Z,-71
2016-06-22T12:57:05.937Z,-70
2016-06-22T12:58:35.184Z,-70
2016-06-22T12:59:10.246Z,-70
2016-06-22T13:00:28.039Z,-73
2016-06-22T13:01:05.694Z,-70
2016-06-22T13:02:06.874Z,-70
2016-06-22T13:03:07.362Z,-70
2016-06-22T13:04:05.852Z,-70
2016-06-22T13:05:05.649Z,-70
2016-06-22T13:06:05.664Z,-70
2016-06-22T13:07:05.675Z,-70
2016-06-22T13:08:05.811Z,-70
2016-06-22T13:09:05.684Z,-70
2016-06-22T13:10:06.525Z,-70
2016-06-22T13:11:05.680Z,-70
2016-06-22T13:12:05.806Z,-70
2016-06-22T13:13:05.609Z,-70
2016-06-22T13:14:05.888Z,-69
2016-06-22T13:15:50.621Z,-69
2016-06-22T13:16:07.604Z,-72
2016-06-22T13:17:06.014Z,-72
2016-06-22T13:18:05.782Z,-72
2016-06-22T13:19:17.583Z,-72
2016-06-22T13:20:09.355Z,-72
2016-06-22T13:21:05.721Z,-70
2016-06-22T13:22:16.726Z,-70
2016-06-22T13:23:11.816Z,-72
2016-06-22T13:24:06.050Z,-70
2016-06-22T13:25:06.037Z,-70
2016-06-22T13:26:06.045Z,-70
2016-06-22T13:27:06.334Z,-70
2016-06-22T13:38:18.670Z,-70
2016-06-22T13:38:45.940Z,-70
2016-06-22T13:39:53.693Z,-70
2016-06-22T13:53:37.741Z,-71
2016-06-22T14:00:38.052Z,-70
2016-06-22T14:12:05.158Z,-70
2016-06-22T14:21:22.814Z,-70
2016-06-22T14:23:50.568Z,-72
2016-06-22T14:24:10.243Z,-72
2016-06-22T14:27:17.470Z,-72
2016-06-22T14:28:21.125Z,-71
2016-06-22T14:28:41.598Z,-71
2016-06-22T14:36:25.378Z,-71
2016-06-22T14:36:42.018Z,-71
2016-06-22T14:37:44.218Z,-71
2016-06-22T14:38:44.539Z,-71
2016-06-22T14:39:45.451Z,-71
2016-06-22T14:45:32.250Z,-70
2016-06-22T14:46:28.657Z,-70
2016-06-22T14:47:40.409Z,-70
2016-06-22T14:48:32.100Z,-70
2016-06-22T14:50:22.078Z,-69
2016-06-22T14:50:39.701Z,-70
2016-06-22T14:51:38.061Z,-70
2016-06-22T14:52:38.935Z,-72
2016-06-22T14:53:38.235Z,-70
2016-06-22T14:55:21.157Z,-72
2016-06-22T14:55:45.925Z,-72
2016-06-22T14:56:39.867Z,-72
2016-06-22T14:57:37.384Z,-70
2016-06-22T14:59:16.285Z,-73
2016-06-22T15:08:39.236Z,-70
2016-06-22T15:13:53.079Z,-70
2016-06-22T15:16:06.591Z,-71
2016-06-22T15:16:30.890Z,-71
2016-06-22T15:17:23.204Z,-71
2016-06-22T15:18:39.352Z,-71
2016-06-22T15:19:23.602Z,-71
2016-06-22T15:21:48.894Z,-71
2016-06-22T15:22:05.497Z,-71
2016-06-22T15:23:33.586Z,-73
2016-06-22T15:24:30.154Z,-73
2016-06-22T15:25:13.466Z,-70
2016-06-22T15:26:05.385Z,-70
2016-06-22T15:27:07.916Z,-72
2016-06-22T15:28:06.963Z,-71
2016-06-22T15:29:04.358Z,-71
2016-06-22T15:30:04.313Z,-71
2016-06-22T15:31:04.946Z,-71
2016-06-22T15:32:04.883Z,-72
2016-06-22T15:33:15.531Z,-71
2016-06-22T15:34:15.885Z,-71
2016-06-22T15:35:07.528Z,-71
2016-06-22T15:36:08.122Z,-71
2016-06-22T15:37:07.102Z,-71
2016-06-22T15:38:05.029Z,-72
2016-06-22T15:39:05.109Z,-71
2016-06-22T15:40:11.458Z,-72
2016-06-22T15:41:05.258Z,-72
2016-06-22T15:42:05.267Z,-72
2016-06-22T15:43:05.471Z,-72
2016-06-22T15:46:06.385Z,-73
2016-06-22T16:00:02.765Z,-71
2016-06-22T16:03:21.265Z,-71
2016-06-22T16:04:16.171Z,-72
2016-06-22T16:04:53.995Z,-70
2016-06-22T16:05:47.349Z,-72
2016-06-22T16:07:16.413Z,-72
2016-06-22T16:19:50.231Z,-72
2016-06-22T16:20:06.679Z,-73
2016-06-22T16:21:21.932Z,-73
2016-06-22T16:22:21.214Z,-72
2016-06-22T16:23:12.016Z,-72
2016-06-22T16:26:18.390Z,-72
2016-06-22T16:26:34.782Z,-72
2016-06-22T16:27:35.375Z,-72
2016-06-22T16:28:50.843Z,-72
2016-06-22T16:29:36.199Z,-72
2016-06-22T16:30:48.814Z,-73
2016-06-22T16:31:55.100Z,-73
2016-06-22T16:32:35.605Z,-73
2016-06-22T16:33:45.086Z,-74
2016-06-22T16:34:38.600Z,-72
2016-06-22T16:35:36.678Z,-71
2016-06-22T16:37:29.945Z,-71
2016-06-22T16:37:48.500Z,-72
2016-06-22T16:42:04.917Z,-73